Terminal Aerodrome Forecast
Issued by NWS Cleveland, OH

Home | Current Version | Previous Version | Graphics & Text | Print | Product List | Glossary On
Versions: 1 2 3 4 5 6 7 8 9 10 11 12 13 14 15 16 17 18 19 20
000
FTUS41 KCLE 231900 AAA
TAFYNG
TAF AMD
KYNG 231926Z 2319/2418 33010KT P6SM BKN035
      TEMPO 2320/2321 SCT035
     FM232100 33006KT P6SM FEW035
     FM232300 32005KT P6SM SCT250
     FM241000 VRB03KT P6SM BKN100
     FM241600 25006KT P6SM SCT045 BKN100=

USA.gov is the U.S. government's official web portal to all federal, state and local government web resources and services.